Time;durP1;ratioP1;P1;durP2;ratioP2;P2;SDS_P1;SDS_P2;PMS_P1;PMS_P2;Temp;Humidity;BMP_temperature;BMP_pressure;BME280_temperature;BME280_humidity;BME280_pressure;Samples;Min_cycle;Max_cycle;Signal;HPM_P1;HPM_P2
2023/12/21 00:01:17;;;;;;;2.87;1.40;;;;;;;6.80;100.00;99586.38;6015034;28;20286;-72
2023/12/21 00:04:12;;;;;;;2.73;1.03;;;;;;;6.81;100.00;99570.44;6010915;28;20294;-72
2023/12/21 00:07:08;;;;;;;2.13;1.03;;;;;;;6.84;100.00;99588.56;6003929;28;20030;-72
2023/12/21 00:10:04;;;;;;;2.73;1.30;;;;;;;6.87;100.00;99585.66;6008169;28;20038;-72
2023/12/21 00:12:59;;;;;;;2.30;1.13;;;;;;;6.95;100.00;99592.78;6001946;28;20030;-72
2023/12/21 00:15:54;;;;;;;2.17;1.37;;;;;;;6.92;100.00;99586.03;6012873;28;20479;-72
2023/12/21 00:18:50;;;;;;;1.75;0.90;;;;;;;6.94;100.00;99573.50;6006223;28;20285;-73
2023/12/21 00:21:45;;;;;;;2.80;0.87;;;;;;;6.98;100.00;99572.25;6009314;28;20031;-72
2023/12/21 00:24:40;;;;;;;1.83;0.70;;;;;;;7.05;100.00;99583.81;6012966;28;20054;-73
2023/12/21 00:27:36;;;;;;;1.77;0.77;;;;;;;7.06;100.00;99574.13;6010989;28;20471;-73
2023/12/21 00:30:31;;;;;;;2.03;0.90;;;;;;;7.12;100.00;99595.41;6004351;28;20034;-73
2023/12/21 00:33:26;;;;;;;0.60;0.50;;;;;;;7.11;100.00;99564.78;6015843;28;20034;-74
2023/12/21 00:36:21;;;;;;;1.30;0.77;;;;;;;7.15;100.00;99571.38;6019816;28;20042;-73
2023/12/21 00:39:17;;;;;;;1.83;0.70;;;;;;;7.11;100.00;99577.97;6008466;28;20466;-73
2023/12/21 00:42:12;;;;;;;1.13;0.70;;;;;;;7.14;100.00;99588.19;6015475;28;20265;-73
2023/12/21 00:45:08;;;;;;;1.15;0.60;;;;;;;7.20;100.00;99592.03;6012300;28;20474;-72
2023/12/21 00:48:03;;;;;;;1.13;0.60;;;;;;;7.14;100.00;99577.66;6012082;28;20085;-72
2023/12/21 00:50:59;;;;;;;1.30;0.60;;;;;;;7.15;100.00;99566.09;6010276;28;20118;-73
2023/12/21 00:53:54;;;;;;;1.00;0.50;;;;;;;7.16;100.00;99565.16;6004641;28;20038;-72
2023/12/21 00:56:49;;;;;;;1.05;0.60;;;;;;;7.15;100.00;99560.00;6023016;28;20683;-73
2023/12/21 00:59:45;;;;;;;1.80;0.60;;;;;;;7.15;100.00;99566.09;6009802;28;20041;-73
2023/12/21 01:02:40;;;;;;;1.77;0.60;;;;;;;7.17;100.00;99564.16;6010145;28;20041;-72
2023/12/21 01:05:35;;;;;;;1.13;0.50;;;;;;;7.15;100.00;99555.56;6023079;28;20407;-73
2023/12/21 01:08:31;;;;;;;0.87;0.40;;;;;;;7.09;100.00;99537.72;6015282;28;20577;-73
2023/12/21 01:11:26;;;;;;;0.83;0.50;;;;;;;7.10;100.00;99542.03;6014640;28;20026;-73
2023/12/21 01:14:22;;;;;;;1.30;0.50;;;;;;;7.10;100.00;99538.56;6007756;28;20043;-73
2023/12/21 01:17:17;;;;;;;1.85;0.70;;;;;;;7.15;100.00;99547.66;6018060;28;20031;-71
2023/12/21 01:20:12;;;;;;;1.40;0.60;;;;;;;7.09;100.00;99536.91;6009686;28;20467;-72
2023/12/21 01:23:08;;;;;;;1.77;0.90;;;;;;;7.11;100.00;99534.94;6008290;28;20042;-72
2023/12/21 01:26:03;;;;;;;1.23;0.50;;;;;;;7.06;100.00;99521.41;6019292;28;20426;-71
2023/12/21 01:28:58;;;;;;;1.95;0.65;;;;;;;7.04;100.00;99534.72;6019582;28;20029;-72
2023/12/21 01:31:54;;;;;;;1.50;0.60;;;;;;;7.09;100.00;99531.66;6010323;28;20102;-72
2023/12/21 01:34:49;;;;;;;1.40;0.63;;;;;;;7.06;100.00;99524.88;6021877;28;20034;-72
2023/12/21 01:37:44;;;;;;;1.47;0.80;;;;;;;7.10;100.00;99534.13;6012935;28;20086;-72
2023/12/21 01:40:40;;;;;;;1.10;0.60;;;;;;;7.14;100.00;99529.38;6015817;28;20034;-72
2023/12/21 01:43:35;;;;;;;1.45;0.70;;;;;;;7.12;100.00;99516.31;6020941;28;20464;-72
2023/12/21 01:46:31;;;;;;;1.27;0.60;;;;;;;7.12;100.00;99511.06;6018090;28;20462;-72
2023/12/21 01:49:26;;;;;;;1.55;0.57;;;;;;;7.13;100.00;99499.53;6022196;28;20026;-71
2023/12/21 01:52:22;;;;;;;4.43;0.50;;;;;;;7.04;100.00;99468.00;6005521;28;20489;-71
2023/12/21 01:55:17;;;;;;;1.13;0.40;;;;;;;7.08;100.00;99474.63;6015681;28;20062;-72
2023/12/21 01:58:12;;;;;;;1.13;0.60;;;;;;;7.07;100.00;99473.78;6032253;28;20090;-72
2023/12/21 02:01:08;;;;;;;1.10;0.60;;;;;;;7.03;100.00;99461.09;6017622;28;20082;-72
2023/12/21 02:04:03;;;;;;;1.83;0.68;;;;;;;7.12;100.00;99468.88;6005315;28;20277;-72
2023/12/21 02:06:59;;;;;;;1.60;0.77;;;;;;;7.06;100.00;99455.50;6019587;28;20045;-73
2023/12/21 02:09:54;;;;;;;1.48;0.75;;;;;;;7.10;100.00;99460.31;6009461;28;20121;-72
2023/12/21 02:12:49;;;;;;;1.57;0.70;;;;;;;7.06;100.00;99458.97;6012386;28;20085;-72
2023/12/21 02:15:45;;;;;;;1.60;0.67;;;;;;;7.08;100.00;99462.28;6017004;28;20291;-72
2023/12/21 02:18:41;;;;;;;1.02;0.52;;;;;;;7.08;100.00;99445.63;6029558;28;20114;-72
2023/12/21 02:21:37;;;;;;;1.63;0.82;;;;;;;7.11;100.00;99450.59;6007586;28;20046;-72
2023/12/21 02:24:32;;;;;;;1.23;0.70;;;;;;;7.05;100.00;99430.97;6012987;28;20078;-72
2023/12/21 02:27:28;;;;;;;1.27;0.80;;;;;;;7.12;100.00;99429.34;6029444;28;20573;-72
2023/12/21 02:30:23;;;;;;;1.73;0.77;;;;;;;7.06;100.00;99414.19;6016321;28;20106;-72
2023/12/21 02:33:18;;;;;;;1.47;0.70;;;;;;;7.09;100.00;99411.19;6014878;28;20108;-72
2023/12/21 02:36:13;;;;;;;1.57;0.80;;;;;;;7.11;100.00;99406.63;6015101;28;20081;-72
2023/12/21 02:39:09;;;;;;;2.10;0.80;;;;;;;7.14;100.00;99419.50;6021846;28;20034;-72
2023/12/21 02:42:04;;;;;;;1.50;1.00;;;;;;;7.11;100.00;99414.53;6011490;28;20031;-72
2023/12/21 02:44:59;;;;;;;1.67;0.90;;;;;;;7.13;100.00;99401.19;6013042;28;20557;-72
2023/12/21 02:47:55;;;;;;;2.17;0.70;;;;;;;7.08;100.00;99388.47;6022700;28;20477;-71
2023/12/21 02:50:50;;;;;;;2.33;0.93;;;;;;;7.11;100.00;99390.81;6019774;28;20049;-71
2023/12/21 02:53:45;;;;;;;1.57;0.87;;;;;;;7.11;100.00;99385.53;6005301;28;20041;-72
2023/12/21 02:56:41;;;;;;;2.80;1.13;;;;;;;7.11;100.00;99385.53;6013006;28;20065;-72
2023/12/21 02:59:36;;;;;;;1.95;0.80;;;;;;;7.10;100.00;99383.03;6016495;28;20063;-71
2023/12/21 03:02:31;;;;;;;2.03;1.20;;;;;;;7.13;100.00;99375.66;6010617;28;20088;-72
2023/12/21 03:05:27;;;;;;;2.03;1.00;;;;;;;7.17;100.00;99386.72;6021550;28;20032;-74
2023/12/21 03:08:23;;;;;;;2.33;0.97;;;;;;;7.09;100.00;99358.47;6006940;28;20027;-72
2023/12/21 03:11:18;;;;;;;1.75;0.90;;;;;;;7.13;100.00;99337.91;6013523;28;20126;-71
2023/12/21 03:14:13;;;;;;;2.17;1.00;;;;;;;7.14;100.00;99350.97;6006532;28;20034;-73
2023/12/21 03:17:09;;;;;;;2.40;1.10;;;;;;;7.18;100.00;99357.56;6011887;28;20433;-71
2023/12/21 03:20:06;;;;;;;1.73;1.30;;;;;;;7.03;100.00;99338.06;6014532;28;20393;-72
2023/12/21 03:23:02;;;;;;;1.88;1.00;;;;;;;7.20;100.00;99355.56;6011514;28;20026;-71
2023/12/21 03:25:57;;;;;;;2.00;0.90;;;;;;;7.19;100.00;99348.66;6007838;28;20816;-71
2023/12/21 03:28:52;;;;;;;1.55;0.73;;;;;;;7.16;100.00;99341.06;6017748;28;20279;-71
2023/12/21 03:31:48;;;;;;;2.10;1.07;;;;;;;7.17;100.00;99332.16;6014982;28;20113;-71
2023/12/21 03:34:43;;;;;;;1.63;1.00;;;;;;;7.20;100.00;99320.50;6014121;28;20026;-72
2023/12/21 03:37:38;;;;;;;1.53;0.87;;;;;;;7.20;100.00;99310.75;6019588;28;20473;-72
2023/12/21 03:40:34;;;;;;;2.23;1.10;;;;;;;7.22;100.00;99296.59;6009125;28;20258;-72
2023/12/21 03:43:29;;;;;;;1.77;0.87;;;;;;;7.22;100.00;99278.16;6005872;28;20282;-72
2023/12/21 03:46:24;;;;;;;2.43;1.20;;;;;;;7.25;100.00;99275.19;6016245;28;20030;-72
2023/12/21 03:49:20;;;;;;;2.75;1.23;;;;;;;7.20;100.00;99268.59;6001648;28;20120;-72
2023/12/21 03:52:15;;;;;;;2.38;1.10;;;;;;;7.29;100.00;99271.25;6018685;28;20433;-72
2023/12/21 03:55:10;;;;;;;2.67;1.20;;;;;;;7.28;100.00;99256.44;6012793;28;20041;-72
2023/12/21 03:58:06;;;;;;;3.80;1.30;;;;;;;7.24;100.00;99252.44;6018731;28;20035;-71
2023/12/21 04:01:01;;;;;;;1.87;1.07;;;;;;;7.32;100.00;99263.84;6014747;28;20368;-72
2023/12/21 04:03:56;;;;;;;2.25;0.93;;;;;;;7.26;100.00;99253.94;6000633;28;20023;-73
2023/12/21 04:06:52;;;;;;;1.77;0.93;;;;;;;7.30;100.00;99254.44;6004909;28;20101;-72
2023/12/21 04:09:47;;;;;;;2.30;0.90;;;;;;;7.30;100.00;99244.72;6008423;28;20475;-73
2023/12/21 04:12:42;;;;;;;2.20;1.00;;;;;;;7.29;100.00;99236.97;6020964;28;20038;-72
2023/12/21 04:15:38;;;;;;;2.27;1.00;;;;;;;7.29;100.00;99223.78;6010171;28;20042;-72
2023/12/21 04:18:33;;;;;;;2.07;1.00;;;;;;;7.35;100.00;99215.22;6019637;28;20811;-73
2023/12/21 04:21:28;;;;;;;2.37;1.03;;;;;;;7.35;100.00;99226.63;6007327;28;20262;-73
2023/12/21 04:24:24;;;;;;;2.87;1.20;;;;;;;7.38;100.00;99209.63;6007170;28;20045;-72
2023/12/21 04:27:19;;;;;;;4.10;1.70;;;;;;;7.36;100.00;99203.72;6014384;28;20298;-72
2023/12/21 04:30:14;;;;;;;2.67;1.33;;;;;;;7.39;100.00;99203.38;6017963;28;20105;-72
2023/12/21 04:33:11;;;;;;;3.00;1.40;;;;;;;7.46;100.00;99204.38;6008842;28;20034;-73
2023/12/21 04:36:08;;;;;;;3.35;1.40;;;;;;;7.38;100.00;99178.81;6002152;28;20030;-72
2023/12/21 04:39:03;;;;;;;2.53;1.33;;;;;;;7.43;100.00;99194.16;6012248;28;20034;-72
2023/12/21 04:41:59;;;;;;;3.10;1.20;;;;;;;7.43;100.00;99178.31;6008922;28;20034;-73
2023/12/21 04:44:54;;;;;;;2.80;1.20;;;;;;;7.52;100.00;99180.00;6011923;28;20030;-72
2023/12/21 04:47:49;;;;;;;4.17;1.97;;;;;;;7.53;100.00;99176.34;6017857;28;20410;-72
2023/12/21 04:50:45;;;;;;;2.67;1.30;;;;;;;7.52;100.00;99167.63;6018034;28;20031;-73
2023/12/21 04:53:40;;;;;;;3.42;1.40;;;;;;;7.52;100.00;99165.00;6011405;28;20471;-73
2023/12/21 04:56:40;;;;;;;3.00;1.20;;;;;;;7.54;100.00;99162.19;6011106;28;20034;-73
2023/12/21 04:59:40;;;;;;;5.20;1.30;;;;;;;7.53;100.00;99157.88;6009877;28;20037;-73
2023/12/21 05:02:35;;;;;;;2.92;1.20;;;;;;;7.54;100.00;99156.91;5996030;28;20035;-74
2023/12/21 05:05:31;;;;;;;2.33;1.23;;;;;;;7.53;100.00;99152.59;6011655;28;20495;-74
2023/12/21 05:08:26;;;;;;;2.83;1.30;;;;;;;7.57;100.00;99152.13;6013606;28;20254;-72
2023/12/21 05:11:21;;;;;;;2.83;1.50;;;;;;;7.57;100.00;99152.13;6014708;28;20300;-72
2023/12/21 05:14:17;;;;;;;2.92;1.08;;;;;;;7.59;100.00;99144.03;6011562;28;20494;-73
2023/12/21 05:17:12;;;;;;;2.17;1.00;;;;;;;7.54;100.00;99147.19;6010702;28;20470;-73
2023/12/21 05:20:09;;;;;;;2.00;0.90;;;;;;;7.60;100.00;99151.81;6011267;28;20065;-72
2023/12/21 05:23:04;;;;;;;2.25;1.02;;;;;;;7.62;100.00;99134.00;6005124;28;20110;-73
2023/12/21 05:26:00;;;;;;;2.57;1.10;;;;;;;7.59;100.00;99115.03;6012952;28;20466;-73
2023/12/21 05:28:57;;;;;;;3.15;1.30;;;;;;;7.60;100.00;99104.31;6013779;28;20361;-73
2023/12/21 05:31:52;;;;;;;2.08;0.98;;;;;;;7.59;100.00;99109.75;6019484;28;20023;-73
2023/12/21 05:34:48;;;;;;;1.80;0.80;;;;;;;7.67;100.00;99104.47;5998578;28;20096;-73
2023/12/21 05:37:43;;;;;;;1.30;0.82;;;;;;;7.65;100.00;99107.28;6007602;28;20031;-74
2023/12/21 05:40:39;;;;;;;1.57;0.93;;;;;;;7.62;100.00;99104.16;6016804;28;20018;-73
2023/12/21 05:43:34;;;;;;;2.00;1.10;;;;;;;7.69;100.00;99099.88;6019390;28;20250;-74
2023/12/21 05:46:29;;;;;;;1.93;1.00;;;;;;;7.75;100.00;99085.97;6014614;28;20078;-74
2023/12/21 05:49:24;;;;;;;1.97;0.97;;;;;;;7.73;100.00;99072.16;6019719;28;20033;-73
2023/12/21 05:52:20;;;;;;;1.57;0.90;;;;;;;7.76;100.00;99059.44;6016086;28;20378;-73
2023/12/21 05:55:15;;;;;;;2.38;0.90;;;;;;;7.83;100.00;99064.84;6005019;28;20034;-74
2023/12/21 05:58:11;;;;;;;1.70;0.80;;;;;;;7.82;100.00;99049.22;6010848;28;20039;-73
2023/12/21 06:01:08;;;;;;;1.53;0.70;;;;;;;7.82;100.00;99034.19;6009456;28;20379;-72
2023/12/21 06:04:03;;;;;;;1.67;0.82;;;;;;;7.88;100.00;99032.69;6005909;28;20040;-73
2023/12/21 06:06:59;;;;;;;1.63;0.80;;;;;;;7.91;100.00;99035.00;6008635;28;20497;-72
2023/12/21 06:09:55;;;;;;;2.50;0.97;;;;;;;7.89;100.00;99019.31;6006085;28;20281;-72
2023/12/21 06:12:50;;;;;;;2.60;1.10;;;;;;;7.91;100.00;99014.69;6006169;28;20053;-73
2023/12/21 06:15:46;;;;;;;5.50;1.13;;;;;;;7.96;100.00;99015.03;6006558;28;20038;-71
2023/12/21 06:18:41;;;;;;;2.13;1.20;;;;;;;7.91;100.00;99000.69;6015434;28;20029;-72
2023/12/21 06:21:39;;;;;;;3.78;1.63;;;;;;;7.93;100.00;98993.44;6013403;28;20027;-73
2023/12/21 06:24:35;;;;;;;3.17;1.63;;;;;;;7.84;100.00;98978.59;6011408;28;20536;-74
2023/12/21 06:27:30;;;;;;;3.30;1.63;;;;;;;7.87;100.00;98973.81;6016721;28;20034;-73
2023/12/21 06:30:28;;;;;;;3.50;1.80;;;;;;;7.86;100.00;98956.34;6004639;28;20019;-75
2023/12/21 06:33:24;;;;;;;4.10;1.80;;;;;;;7.90;100.00;98964.72;6011580;28;20034;-75
2023/12/21 06:36:20;;;;;;;3.67;1.77;;;;;;;7.85;100.00;98952.06;6004910;28;20034;-74
2023/12/21 06:39:16;;;;;;;4.57;1.75;;;;;;;7.85;100.00;98948.59;6016717;28;20063;-72
2023/12/21 06:42:11;;;;;;;3.72;1.80;;;;;;;7.87;100.00;98962.44;6018365;28;20027;-74
2023/12/21 06:45:07;;;;;;;3.13;1.50;;;;;;;7.88;100.00;98929.78;6005101;28;20104;-73
2023/12/21 06:48:02;;;;;;;3.15;1.67;;;;;;;7.91;100.00;98932.09;6002332;28;20057;-72
2023/12/21 06:50:58;;;;;;;4.43;2.20;;;;;;;7.83;100.00;98906.53;6001439;28;20061;-73
2023/12/21 06:53:53;;;;;;;4.93;2.00;;;;;;;7.84;100.00;98897.63;6002080;28;20062;-73
2023/12/21 06:56:49;;;;;;;4.28;1.73;;;;;;;7.88;100.00;98891.00;6002662;28;20758;-73
2023/12/21 06:59:44;;;;;;;4.55;2.05;;;;;;;7.87;100.00;98878.00;6003533;28;20045;-74
2023/12/21 07:02:40;;;;;;;3.60;1.70;;;;;;;7.82;100.00;98875.88;6001072;28;20058;-72
2023/12/21 07:05:35;;;;;;;4.20;2.10;;;;;;;7.79;100.00;98863.88;6006213;28;20422;-73
2023/12/21 07:08:30;;;;;;;5.37;2.53;;;;;;;7.79;100.00;98860.41;6007451;28;20061;-72
2023/12/21 07:11:26;;;;;;;3.77;2.03;;;;;;;7.85;100.00;98850.97;6003434;28;20724;-73
2023/12/21 07:14:22;;;;;;;4.70;2.38;;;;;;;7.81;100.00;98826.75;6003580;28;20290;-73
2023/12/21 07:17:17;;;;;;;4.40;2.10;;;;;;;7.76;100.00;98819.34;6008870;28;20158;-73
2023/12/21 07:20:12;;;;;;;6.90;2.17;;;;;;;7.81;100.00;98813.53;6004694;28;20531;-73
2023/12/21 07:23:08;;;;;;;4.20;1.90;;;;;;;7.82;100.00;98796.72;6004386;28;20038;-73
2023/12/21 07:26:03;;;;;;;4.00;2.03;;;;;;;7.83;100.00;98793.06;6005518;28;20776;-72
2023/12/21 07:28:59;;;;;;;3.23;1.47;;;;;;;7.86;100.00;98776.91;6007221;28;20077;-72
2023/12/21 07:31:54;;;;;;;2.58;1.40;;;;;;;7.83;100.00;98755.34;6004620;28;20035;-73
2023/12/21 07:34:50;;;;;;;2.97;1.43;;;;;;;7.86;100.00;98750.50;6002716;28;20039;-72
2023/12/21 07:37:45;;;;;;;1.73;1.10;;;;;;;7.91;100.00;98736.81;6002203;28;20509;-72
2023/12/21 07:40:41;;;;;;;2.17;1.00;;;;;;;7.87;100.00;98711.75;6003305;28;20109;-72
2023/12/21 07:43:37;;;;;;;1.93;1.10;;;;;;;7.90;100.00;98714.88;6009801;28;20278;-72
2023/12/21 07:46:32;;;;;;;2.90;1.25;;;;;;;7.93;100.00;98682.84;6004129;28;20027;-72
2023/12/21 07:49:28;;;;;;;2.72;1.27;;;;;;;7.88;100.00;98673.81;6004830;28;20031;-72
2023/12/21 07:52:23;;;;;;;2.33;1.00;;;;;;;7.95;100.00;98669.47;6009637;28;20628;-73
2023/12/21 07:55:18;;;;;;;2.30;1.00;;;;;;;7.99;100.00;98660.19;6013713;28;20176;-73
2023/12/21 07:58:14;;;;;;;1.57;0.90;;;;;;;8.00;100.00;98627.50;6006168;28;20301;-73
2023/12/21 08:01:10;;;;;;;1.47;0.77;;;;;;;8.09;100.00;98640.47;6004109;28;20036;-73
2023/12/21 08:04:07;;;;;;;1.65;0.93;;;;;;;8.08;100.00;98628.25;6005209;28;20026;-72
2023/12/21 08:07:03;;;;;;;1.88;0.75;;;;;;;8.05;100.00;98610.13;6005986;28;20057;-72
2023/12/21 08:10:01;;;;;;;2.53;0.93;;;;;;;8.13;100.00;98615.31;6001423;28;20498;-71
2023/12/21 08:12:58;;;;;;;1.10;0.60;;;;;;;8.15;100.00;98607.25;6004735;28;20053;-72
2023/12/21 08:15:53;;;;;;;1.63;0.70;;;;;;;8.17;100.00;98584.94;6004943;28;20038;-72
2023/12/21 08:18:48;;;;;;;0.87;0.60;;;;;;;8.10;100.00;98570.03;6006980;28;20497;-72
2023/12/21 08:21:44;;;;;;;1.47;0.70;;;;;;;8.13;100.00;98582.81;6010601;28;20275;-70
2023/12/21 08:24:39;;;;;;;1.03;0.60;;;;;;;8.20;100.00;98589.84;6013796;28;20598;-71
2023/12/21 08:27:35;;;;;;;0.30;0.25;;;;;;;8.21;100.00;98582.72;6007962;28;20375;-73
2023/12/21 08:30:30;;;;;;;0.95;0.45;;;;;;;8.21;100.00;98574.81;6002261;28;20046;-72
2023/12/21 08:33:25;;;;;;;1.20;0.50;;;;;;;8.24;100.00;98554.16;6002026;28;20027;-72
2023/12/21 08:36:21;;;;;;;0.63;0.50;;;;;;;8.27;100.00;98561.72;6005404;28;20972;-72
2023/12/21 08:39:16;;;;;;;0.68;0.47;;;;;;;8.21;100.00;98538.66;6010697;28;20026;-73
2023/12/21 08:42:12;;;;;;;0.45;0.40;;;;;;;8.22;100.00;98550.06;6004639;28;20073;-71
2023/12/21 08:45:08;;;;;;;0.83;0.70;;;;;;;8.24;100.00;98538.31;6007574;28;20058;-71
2023/12/21 08:48:03;;;;;;;1.98;0.52;;;;;;;8.23;100.00;98549.06;6008874;28;20496;-72
2023/12/21 08:50:58;;;;;;;1.05;0.57;;;;;;;8.19;100.00;98540.69;6007219;28;20038;-72
2023/12/21 08:53:54;;;;;;;0.87;0.50;;;;;;;8.16;100.00;98541.03;6007148;28;20034;-72
2023/12/21 08:56:52;;;;;;;1.48;0.50;;;;;;;8.13;100.00;98544.06;6005433;28;20031;-72
2023/12/21 08:59:48;;;;;;;0.63;0.40;;;;;;;8.18;100.00;98539.03;6006769;28;20791;-72
2023/12/21 09:02:43;;;;;;;1.48;0.80;;;;;;;8.11;100.00;98540.78;6008071;28;20114;-71
2023/12/21 09:05:39;;;;;;;1.00;0.60;;;;;;;8.13;100.00;98540.59;6009110;28;20037;-71
2023/12/21 09:08:34;;;;;;;1.73;0.90;;;;;;;8.08;100.00;98527.94;6017128;28;20505;-71
2023/12/21 09:11:29;;;;;;;1.83;1.00;;;;;;;8.03;100.00;98509.22;6013949;28;20030;-72
2023/12/21 09:14:25;;;;;;;1.63;0.77;;;;;;;8.08;100.00;98527.94;6016564;28;20571;-71
2023/12/21 09:17:20;;;;;;;0.83;0.40;;;;;;;7.97;100.00;98515.22;6017805;28;20048;-71
2023/12/21 09:20:15;;;;;;;1.67;0.90;;;;;;;8.05;100.00;98524.84;6019141;28;20628;-72
2023/12/21 09:23:12;;;;;;;1.38;0.80;;;;;;;7.98;100.00;98506.31;6023767;28;20022;-70
2023/12/21 09:26:08;;;;;;;1.33;0.73;;;;;;;7.97;100.00;98504.66;6012634;28;20129;-72
2023/12/21 09:29:04;;;;;;;2.90;0.75;;;;;;;7.99;100.00;98500.00;6007799;28;20034;-71
2023/12/21 09:31:59;;;;;;;0.85;0.57;;;;;;;8.03;100.00;98474.91;6015754;28;20030;-71
2023/12/21 09:34:54;;;;;;;1.45;0.85;;;;;;;8.02;100.00;98470.63;6014715;28;20043;-70
2023/12/21 09:37:50;;;;;;;2.20;1.13;;;;;;;8.07;100.00;98465.59;6014382;28;20046;-72
2023/12/21 09:40:46;;;;;;;1.40;0.73;;;;;;;8.06;100.00;98456.06;6014211;28;20034;-73
2023/12/21 09:43:41;;;;;;;3.00;0.70;;;;;;;8.08;100.00;98427.66;6000619;28;20046;-72
2023/12/21 09:46:39;;;;;;;1.30;0.68;;;;;;;8.11;100.00;98424.66;6008567;28;20110;-71
2023/12/21 09:49:36;;;;;;;1.45;0.82;;;;;;;8.13;100.00;98420.00;5999463;28;20031;-72
2023/12/21 09:52:33;;;;;;;1.98;0.90;;;;;;;8.18;100.00;98417.59;6015617;28;20034;-72
2023/12/21 09:55:30;;;;;;;2.47;0.57;;;;;;;8.21;100.00;98406.66;6018142;28;20035;-71
2023/12/21 09:58:26;;;;;;;0.65;0.50;;;;;;;8.25;100.00;98392.09;6000312;28;20486;-72
2023/12/21 10:01:21;;;;;;;0.90;0.50;;;;;;;8.26;100.00;98387.66;6004810;28;20031;-72
2023/12/21 10:04:16;;;;;;;2.07;0.40;;;;;;;8.28;100.00;98388.31;5999489;28;20029;-72
2023/12/21 10:07:12;;;;;;;1.33;0.67;;;;;;;8.26;100.00;98355.97;6018059;28;20042;-72
2023/12/21 10:10:08;;;;;;;0.32;0.32;;;;;;;8.26;100.00;98340.91;6016267;28;20066;-71
2023/12/21 10:13:03;;;;;;;1.35;0.95;;;;;;;8.31;100.00;98338.59;6026060;28;20093;-72
2023/12/21 10:15:59;;;;;;;1.07;0.57;;;;;;;8.36;100.00;98322.97;6007987;28;20102;-73
2023/12/21 10:18:55;;;;;;;0.90;0.45;;;;;;;8.40;100.00;98310.19;5999546;28;20298;-72
2023/12/21 10:21:51;;;;;;;1.98;0.50;;;;;;;8.46;100.00;98306.78;6019345;28;20565;-72
2023/12/21 10:24:49;;;;;;;0.70;0.52;;;;;;;8.49;100.00;98306.41;6016300;28;20038;-73
2023/12/21 10:27:53;;;;;;;1.52;0.90;;;;;;;8.51;100.00;98300.94;6030879;28;20057;-72
2023/12/21 10:30:56;;;;;;;0.68;0.60;;;;;;;8.51;100.00;98290.34;6012595;28;20038;-72
2023/12/21 10:33:52;;;;;;;1.02;0.50;;;;;;;8.48;100.00;98285.50;6012892;28;20097;-73
2023/12/21 10:36:47;;;;;;;0.95;0.40;;;;;;;8.52;100.00;98268.22;6014429;28;20039;-72
2023/12/21 10:39:43;;;;;;;0.90;0.50;;;;;;;8.52;100.00;98262.94;6017484;28;20080;-72
2023/12/21 10:42:47;;;;;;;0.40;0.35;;;;;;;8.53;100.00;98264.59;6018194;28;20031;-71
2023/12/21 10:45:44;;;;;;;1.45;0.45;;;;;;;8.54;100.00;98253.81;6011804;28;20046;-72
2023/12/21 10:48:40;;;;;;;0.60;0.45;;;;;;;8.48;100.00;98233.47;6013509;28;20478;-72
2023/12/21 10:51:35;;;;;;;0.73;0.47;;;;;;;8.48;100.00;98238.75;6014008;28;20058;-71
2023/12/21 10:54:32;;;;;;;0.95;0.40;;;;;;;8.53;100.00;98217.06;6018412;28;20057;-71
2023/12/21 10:57:28;;;;;;;0.68;0.40;;;;;;;8.49;100.00;98213.97;6015481;28;20123;-71
2023/12/21 11:00:24;;;;;;;0.43;0.30;;;;;;;8.47;100.00;98194.06;5990615;28;20051;-71
2023/12/21 11:03:19;;;;;;;0.52;0.38;;;;;;;8.51;100.00;98184.72;6001760;28;20026;-71
2023/12/21 11:06:19;;;;;;;1.77;0.40;;;;;;;8.55;100.00;98176.22;6010229;28;20076;-72
2023/12/21 11:09:18;;;;;;;0.88;0.45;;;;;;;8.53;100.00;98166.88;6002597;28;20065;-71
2023/12/21 11:12:14;;;;;;;0.52;0.25;;;;;;;8.54;100.00;98157.91;5996116;28;20038;-71
2023/12/21 11:15:11;;;;;;;0.90;0.60;;;;;;;8.55;100.00;98157.75;5999292;28;20406;-70
2023/12/21 11:18:10;;;;;;;0.68;0.50;;;;;;;8.54;100.00;98150.00;6013732;28;20371;-71
2023/12/21 11:21:06;;;;;;;1.30;0.60;;;;;;;8.57;100.00;98142.50;6015806;28;20035;-71
2023/12/21 11:24:02;;;;;;;3.42;0.30;;;;;;;8.58;100.00;98138.03;6015298;28;20082;-72
2023/12/21 11:26:59;;;;;;;0.30;0.20;;;;;;;8.55;100.00;98112.03;6007949;28;20030;-72
2023/12/21 11:29:54;;;;;;;2.20;0.55;;;;;;;8.55;100.00;98096.16;6006238;28;20031;-70
2023/12/21 11:32:51;;;;;;;0.50;0.17;;;;;;;8.57;100.00;98100.25;6003129;28;20034;-71
2023/12/21 11:35:53;;;;;;;0.43;0.28;;;;;;;8.56;100.00;98100.47;6012498;28;20385;-70
2023/12/21 11:38:52;;;;;;;1.30;0.50;;;;;;;8.58;100.00;98079.94;6012723;28;20042;-73
2023/12/21 11:41:48;;;;;;;0.85;0.40;;;;;;;8.63;100.00;98077.50;6006239;28;20033;-71
2023/12/21 11:44:47;;;;;;;1.50;0.30;;;;;;;8.66;100.00;98075.28;6007379;28;20035;-71
2023/12/21 11:47:46;;;;;;;0.30;0.20;;;;;;;8.67;100.00;98065.53;6020602;28;20085;-71
2023/12/21 11:50:42;;;;;;;0.25;0.20;;;;;;;8.70;100.00;98075.69;6015124;28;20034;-70
2023/12/21 11:53:38;;;;;;;0.77;0.20;;;;;;;8.71;100.00;98064.13;6003422;28;20030;-73
2023/12/21 11:56:35;;;;;;;0.30;0.15;;;;;;;8.72;100.00;98049.91;6005437;28;20058;-71
2023/12/21 11:59:30;;;;;;;0.52;0.15;;;;;;;8.67;100.00;98042.56;6010566;28;20074;-71
2023/12/21 12:02:27;;;;;;;0.23;0.10;;;;;;;8.70;100.00;98025.50;6008089;28;20039;-71
2023/12/21 12:05:22;;;;;;;1.17;0.15;;;;;;;8.74;100.00;98032.03;6024912;28;20050;-72
2023/12/21 12:08:21;;;;;;;0.32;0.20;;;;;;;8.76;100.00;98041.38;6017328;28;20089;-70
2023/12/21 12:11:16;;;;;;;0.20;0.10;;;;;;;8.80;100.00;98020.66;6008861;28;20104;-70
2023/12/21 12:14:11;;;;;;;0.88;0.10;;;;;;;8.75;100.00;98017.81;6001331;28;20034;-71
2023/12/21 12:17:07;;;;;;;0.63;0.20;;;;;;;8.73;100.00;98010.06;6000306;28;20031;-71
2023/12/21 12:20:03;;;;;;;0.30;0.10;;;;;;;8.76;100.00;97993.00;6023898;28;20058;-70
2023/12/21 12:22:58;;;;;;;8.75;3.03;;;;;;;8.82;100.00;98013.34;6014542;28;20030;-71
2023/12/21 12:25:54;;;;;;;1.52;0.95;;;;;;;8.89;100.00;97995.66;6003993;28;20035;-72
2023/12/21 12:28:50;;;;;;;0.82;0.63;;;;;;;8.92;100.00;97995.25;6000971;28;20058;-72
2023/12/21 12:31:47;;;;;;;0.45;0.28;;;;;;;8.95;100.00;98003.59;6004971;28;20500;-71
2023/12/21 12:34:43;;;;;;;1.30;0.68;;;;;;;9.04;100.00;97982.25;6000743;28;20402;-71
2023/12/21 12:37:39;;;;;;;0.73;0.60;;;;;;;9.04;100.00;97959.28;5998508;28;20027;-70
2023/12/21 12:40:35;;;;;;;0.50;0.10;;;;;;;9.03;100.00;97944.44;6003428;28;20117;-72
2023/12/21 12:43:34;;;;;;;0.50;0.20;;;;;;;9.03;100.00;97941.78;6012030;28;20031;-72
2023/12/21 12:46:30;;;;;;;0.30;0.30;;;;;;;9.12;100.00;97940.56;6015824;28;20031;-72
2023/12/21 12:49:26;;;;;;;0.45;0.20;;;;;;;9.18;100.00;97960.09;6008800;28;20402;-73
2023/12/21 12:52:21;;;;;;;0.73;0.40;;;;;;;9.15;100.00;97940.16;6006612;28;20034;-72
2023/12/21 12:55:18;;;;;;;0.93;0.50;;;;;;;9.12;100.00;97945.84;6003712;28;20038;-73
2023/12/21 12:58:13;;;;;;;0.85;0.30;;;;;;;9.18;100.00;97934.47;6025388;28;20033;-72
2023/12/21 13:01:08;;;;;;;0.95;0.30;;;;;;;9.29;100.00;97933.84;6014133;28;20125;-72
2023/12/21 13:04:04;;;;;;;0.53;0.30;;;;;;;9.27;100.00;97930.56;6016666;28;20042;-72
2023/12/21 13:06:59;;;;;;;0.63;0.43;;;;;;;9.20;100.00;97926.31;6016079;28;20046;-71
2023/12/21 13:09:54;;;;;;;2.27;1.03;;;;;;;9.13;100.00;97931.59;6015737;28;20057;-71
2023/12/21 13:12:50;;;;;;;2.53;0.80;;;;;;;9.03;100.00;97941.78;6012196;28;20372;-71
2023/12/21 13:15:46;;;;;;;1.83;0.87;;;;;;;8.94;100.00;98009.09;6014636;28;20113;-72
2023/12/21 13:18:41;;;;;;;0.65;0.20;;;;;;;7.57;100.00;97968.00;6010424;28;20042;-72
2023/12/21 13:21:37;;;;;;;0.97;0.40;;;;;;;7.30;100.00;97949.56;6014187;28;20058;-72
2023/12/21 13:24:32;;;;;;;6.22;0.73;;;;;;;7.43;100.00;97952.28;6016173;28;20027;-73
2023/12/21 13:27:28;;;;;;;1.03;0.50;;;;;;;7.59;100.00;97912.41;6018164;28;20092;-72
2023/12/21 13:30:23;;;;;;;4.87;0.73;;;;;;;7.49;100.00;97925.16;6011224;28;20026;-72
2023/12/21 13:33:18;;;;;;;2.23;0.70;;;;;;;7.41;100.00;97952.50;6016967;28;20031;-70
2023/12/21 13:36:14;;;;;;;2.08;0.70;;;;;;;7.40;100.00;97928.94;6008369;28;20033;-71
2023/12/21 13:39:09;;;;;;;4.20;1.03;;;;;;;7.48;100.00;97948.06;6011783;28;20076;-73
2023/12/21 13:42:06;;;;;;;3.53;0.80;;;;;;;7.55;100.00;97945.47;6012027;28;20282;-72
2023/12/21 13:45:04;;;;;;;3.63;1.60;;;;;;;7.66;100.00;97945.72;6014028;28;20556;-72
2023/12/21 13:47:59;;;;;;;6.38;1.90;;;;;;;7.66;100.00;97931.75;6010187;28;20041;-72